sensor_id;sensor_type;location;lat;lon;timestamp;temperature;humidity
19437;DHT22;9854;50.968;4.168;2023-01-13T00:01:21;10.20;99.90
19437;DHT22;9854;50.968;4.168;2023-01-13T00:03:47;10.30;99.90
19437;DHT22;9854;50.968;4.168;2023-01-13T00:06:15;10.20;99.90
19437;DHT22;9854;50.968;4.168;2023-01-13T00:08:42;10.10;99.90
19437;DHT22;9854;50.968;4.168;2023-01-13T00:11:09;10.10;99.90
19437;DHT22;9854;50.968;4.168;2023-01-13T00:13:35;10.20;99.90
19437;DHT22;9854;50.968;4.168;2023-01-13T00:16:09;10.20;99.90
19437;DHT22;9854;50.968;4.168;2023-01-13T00:18:35;10.10;99.90
19437;DHT22;9854;50.968;4.168;2023-01-13T00:21:05;10.20;99.90
19437;DHT22;9854;50.968;4.168;2023-01-13T00:23:32;10.10;99.90
19437;DHT22;9854;50.968;4.168;2023-01-13T00:26:00;10.10;99.90
19437;DHT22;9854;50.968;4.168;2023-01-13T00:28:27;10.00;99.90
19437;DHT22;9854;50.968;4.168;2023-01-13T00:30:53;10.00;99.90
19437;DHT22;9854;50.968;4.168;2023-01-13T00:33:20;10.10;99.90
19437;DHT22;9854;50.968;4.168;2023-01-13T00:35:56;10.10;99.90
19437;DHT22;9854;50.968;4.168;2023-01-13T00:38:23;10.00;99.90
19437;DHT22;9854;50.968;4.168;2023-01-13T00:41:00;10.10;99.90
19437;DHT22;9854;50.968;4.168;2023-01-13T00:43:27;10.00;99.90
19437;DHT22;9854;50.968;4.168;2023-01-13T00:45:53;10.00;99.90
19437;DHT22;9854;50.968;4.168;2023-01-13T00:48:20;10.00;99.90
19437;DHT22;9854;50.968;4.168;2023-01-13T00:50:46;9.90;99.90
19437;DHT22;9854;50.968;4.168;2023-01-13T00:53:18;9.90;99.90
19437;DHT22;9854;50.968;4.168;2023-01-13T00:55:44;9.90;99.90
19437;DHT22;9854;50.968;4.168;2023-01-13T00:58:10;9.90;99.90
19437;DHT22;9854;50.968;4.168;2023-01-13T01:00:36;9.90;99.90
19437;DHT22;9854;50.968;4.168;2023-01-13T01:03:01;9.80;99.90
19437;DHT22;9854;50.968;4.168;2023-01-13T01:05:27;9.70;99.90
19437;DHT22;9854;50.968;4.168;2023-01-13T01:07:53;9.80;99.90
19437;DHT22;9854;50.968;4.168;2023-01-13T01:10:18;9.80;99.90
19437;DHT22;9854;50.968;4.168;2023-01-13T01:12:44;9.80;99.90
19437;DHT22;9854;50.968;4.168;2023-01-13T01:15:10;9.70;99.90
19437;DHT22;9854;50.968;4.168;2023-01-13T01:17:36;9.60;99.90
19437;DHT22;9854;50.968;4.168;2023-01-13T01:20:03;9.60;99.90
19437;DHT22;9854;50.968;4.168;2023-01-13T01:22:28;9.50;99.90
19437;DHT22;9854;50.968;4.168;2023-01-13T01:24:54;9.50;99.90
19437;DHT22;9854;50.968;4.168;2023-01-13T01:27:20;9.50;99.90
19437;DHT22;9854;50.968;4.168;2023-01-13T01:29:45;9.50;99.90
19437;DHT22;9854;50.968;4.168;2023-01-13T01:32:11;9.60;99.90
19437;DHT22;9854;50.968;4.168;2023-01-13T01:34:37;9.50;99.90
19437;DHT22;9854;50.968;4.168;2023-01-13T01:37:03;9.40;99.90
19437;DHT22;9854;50.968;4.168;2023-01-13T01:39:29;9.40;99.90
19437;DHT22;9854;50.968;4.168;2023-01-13T01:41:55;9.40;99.90
19437;DHT22;9854;50.968;4.168;2023-01-13T01:44:50;9.50;99.90
19437;DHT22;9854;50.968;4.168;2023-01-13T01:47:17;9.40;99.90
19437;DHT22;9854;50.968;4.168;2023-01-13T01:49:45;9.40;99.90
19437;DHT22;9854;50.968;4.168;2023-01-13T01:52:16;9.40;99.90
19437;DHT22;9854;50.968;4.168;2023-01-13T01:57:23;9.40;99.90
19437;DHT22;9854;50.968;4.168;2023-01-13T01:59:51;9.40;99.90
19437;DHT22;9854;50.968;4.168;2023-01-13T02:02:17;9.50;99.90
19437;DHT22;9854;50.968;4.168;2023-01-13T02:04:51;9.40;99.90
19437;DHT22;9854;50.968;4.168;2023-01-13T02:07:20;9.30;99.90
19437;DHT22;9854;50.968;4.168;2023-01-13T02:09:47;9.30;99.90
19437;DHT22;9854;50.968;4.168;2023-01-13T02:12:14;9.30;99.90
19437;DHT22;9854;50.968;4.168;2023-01-13T02:15:09;9.30;99.90
19437;DHT22;9854;50.968;4.168;2023-01-13T02:37:57;9.40;99.90
19437;DHT22;9854;50.968;4.168;2023-01-13T02:40:40;9.40;99.90
19437;DHT22;9854;50.968;4.168;2023-01-13T02:43:19;9.40;99.90
19437;DHT22;9854;50.968;4.168;2023-01-13T02:46:11;9.40;99.90
19437;DHT22;9854;50.968;4.168;2023-01-13T02:48:42;9.50;99.90
19437;DHT22;9854;50.968;4.168;2023-01-13T02:51:13;9.40;99.90
19437;DHT22;9854;50.968;4.168;2023-01-13T02:53:44;9.30;99.90
19437;DHT22;9854;50.968;4.168;2023-01-13T02:56:14;9.20;99.90
19437;DHT22;9854;50.968;4.168;2023-01-13T02:58:42;9.10;99.90
19437;DHT22;9854;50.968;4.168;2023-01-13T03:01:08;9.00;99.90
19437;DHT22;9854;50.968;4.168;2023-01-13T03:03:33;9.00;99.90
19437;DHT22;9854;50.968;4.168;2023-01-13T03:08:48;8.90;99.90
19437;DHT22;9854;50.968;4.168;2023-01-13T03:11:19;8.80;99.90
19437;DHT22;9854;50.968;4.168;2023-01-13T03:13:47;8.80;99.90
19437;DHT22;9854;50.968;4.168;2023-01-13T03:16:45;8.80;99.90
19437;DHT22;9854;50.968;4.168;2023-01-13T03:19:43;8.90;99.90
19437;DHT22;9854;50.968;4.168;2023-01-13T03:24:51;9.00;99.90
19437;DHT22;9854;50.968;4.168;2023-01-13T03:27:21;9.00;99.90
19437;DHT22;9854;50.968;4.168;2023-01-13T03:29:56;9.00;99.90
19437;DHT22;9854;50.968;4.168;2023-01-13T03:32:33;9.00;99.90
19437;DHT22;9854;50.968;4.168;2023-01-13T03:35:33;9.00;99.90
19437;DHT22;9854;50.968;4.168;2023-01-13T03:38:17;9.00;99.90
19437;DHT22;9854;50.968;4.168;2023-01-13T03:40:56;9.00;99.90
19437;DHT22;9854;50.968;4.168;2023-01-13T03:43:38;9.00;99.90
19437;DHT22;9854;50.968;4.168;2023-01-13T03:47:06;9.00;99.90
19437;DHT22;9854;50.968;4.168;2023-01-13T03:50:03;9.00;99.90
19437;DHT22;9854;50.968;4.168;2023-01-13T03:52:35;9.00;99.90
19437;DHT22;9854;50.968;4.168;2023-01-13T03:55:10;9.00;99.90
19437;DHT22;9854;50.968;4.168;2023-01-13T04:00:13;9.00;99.90
19437;DHT22;9854;50.968;4.168;2023-01-13T04:02:49;9.00;99.90
19437;DHT22;9854;50.968;4.168;2023-01-13T04:05:16;9.00;99.90
19437;DHT22;9854;50.968;4.168;2023-01-13T04:10:19;9.00;99.90
19437;DHT22;9854;50.968;4.168;2023-01-13T04:13:06;8.90;99.90
19437;DHT22;9854;50.968;4.168;2023-01-13T04:15:40;8.90;99.90
19437;DHT22;9854;50.968;4.168;2023-01-13T04:18:20;9.00;99.90
19437;DHT22;9854;50.968;4.168;2023-01-13T04:20:50;9.00;99.90
19437;DHT22;9854;50.968;4.168;2023-01-13T04:23:17;9.00;99.90
19437;DHT22;9854;50.968;4.168;2023-01-13T04:25:43;8.90;99.90
19437;DHT22;9854;50.968;4.168;2023-01-13T04:28:10;8.90;99.90
19437;DHT22;9854;50.968;4.168;2023-01-13T04:30:36;8.90;99.90
19437;DHT22;9854;50.968;4.168;2023-01-13T04:33:02;9.00;99.90
19437;DHT22;9854;50.968;4.168;2023-01-13T04:35:30;9.00;99.90
19437;DHT22;9854;50.968;4.168;2023-01-13T04:37:55;8.90;99.90
19437;DHT22;9854;50.968;4.168;2023-01-13T04:40:21;9.00;99.90
19437;DHT22;9854;50.968;4.168;2023-01-13T04:42:47;9.00;99.90
19437;DHT22;9854;50.968;4.168;2023-01-13T04:45:13;9.10;99.90
19437;DHT22;9854;50.968;4.168;2023-01-13T04:47:39;9.20;99.90
19437;DHT22;9854;50.968;4.168;2023-01-13T04:50:06;9.10;99.90
19437;DHT22;9854;50.968;4.168;2023-01-13T04:52:32;9.10;99.90
19437;DHT22;9854;50.968;4.168;2023-01-13T04:54:58;9.00;99.90
19437;DHT22;9854;50.968;4.168;2023-01-13T04:57:23;9.10;99.90
19437;DHT22;9854;50.968;4.168;2023-01-13T04:59:50;9.10;99.90
19437;DHT22;9854;50.968;4.168;2023-01-13T05:02:16;9.00;99.90
19437;DHT22;9854;50.968;4.168;2023-01-13T05:04:47;9.00;99.90
19437;DHT22;9854;50.968;4.168;2023-01-13T05:07:14;9.00;99.90
19437;DHT22;9854;50.968;4.168;2023-01-13T05:09:40;8.90;99.90
19437;DHT22;9854;50.968;4.168;2023-01-13T05:12:07;8.80;99.90
19437;DHT22;9854;50.968;4.168;2023-01-13T05:14:52;8.80;99.90
19437;DHT22;9854;50.968;4.168;2023-01-13T05:17:36;8.80;99.90
19437;DHT22;9854;50.968;4.168;2023-01-13T05:20:03;8.80;99.90
19437;DHT22;9854;50.968;4.168;2023-01-13T05:22:29;8.90;99.90
19437;DHT22;9854;50.968;4.168;2023-01-13T05:25:13;8.80;99.90
19437;DHT22;9854;50.968;4.168;2023-01-13T05:27:57;8.80;99.90
19437;DHT22;9854;50.968;4.168;2023-01-13T05:30:28;8.70;99.90
19437;DHT22;9854;50.968;4.168;2023-01-13T05:32:54;8.70;99.90
19437;DHT22;9854;50.968;4.168;2023-01-13T05:35:20;8.70;99.90
19437;DHT22;9854;50.968;4.168;2023-01-13T05:37:46;8.70;99.90
19437;DHT22;9854;50.968;4.168;2023-01-13T05:40:14;8.70;99.90
19437;DHT22;9854;50.968;4.168;2023-01-13T05:46:05;8.60;99.90
19437;DHT22;9854;50.968;4.168;2023-01-13T05:48:40;8.70;99.90
19437;DHT22;9854;50.968;4.168;2023-01-13T05:51:08;8.60;99.90
19437;DHT22;9854;50.968;4.168;2023-01-13T05:53:34;8.60;99.90
19437;DHT22;9854;50.968;4.168;2023-01-13T05:56:02;8.60;99.90
19437;DHT22;9854;50.968;4.168;2023-01-13T05:58:31;8.70;99.90
19437;DHT22;9854;50.968;4.168;2023-01-13T06:01:02;8.70;99.90
19437;DHT22;9854;50.968;4.168;2023-01-13T06:03:28;8.70;99.90
19437;DHT22;9854;50.968;4.168;2023-01-13T06:05:53;8.70;99.90
19437;DHT22;9854;50.968;4.168;2023-01-13T06:08:23;8.80;99.90
19437;DHT22;9854;50.968;4.168;2023-01-13T06:10:49;8.70;99.90
19437;DHT22;9854;50.968;4.168;2023-01-13T06:13:15;8.70;99.90
19437;DHT22;9854;50.968;4.168;2023-01-13T06:15:40;8.70;99.90
19437;DHT22;9854;50.968;4.168;2023-01-13T06:18:06;8.70;99.90
19437;DHT22;9854;50.968;4.168;2023-01-13T06:20:32;8.70;99.90
19437;DHT22;9854;50.968;4.168;2023-01-13T06:22:58;8.60;99.90
19437;DHT22;9854;50.968;4.168;2023-01-13T06:27:58;8.60;99.90
19437;DHT22;9854;50.968;4.168;2023-01-13T06:30:26;8.50;99.90
19437;DHT22;9854;50.968;4.168;2023-01-13T06:32:55;8.50;99.90
19437;DHT22;9854;50.968;4.168;2023-01-13T06:35:28;8.40;99.90
19437;DHT22;9854;50.968;4.168;2023-01-13T06:37:57;8.40;99.90
19437;DHT22;9854;50.968;4.168;2023-01-13T06:40:24;8.40;99.90
19437;DHT22;9854;50.968;4.168;2023-01-13T06:42:52;8.40;99.90
19437;DHT22;9854;50.968;4.168;2023-01-13T06:45:37;8.40;99.90
19437;DHT22;9854;50.968;4.168;2023-01-13T06:48:02;8.40;99.90
19437;DHT22;9854;50.968;4.168;2023-01-13T06:50:28;8.30;99.90
19437;DHT22;9854;50.968;4.168;2023-01-13T06:52:54;8.40;99.90
19437;DHT22;9854;50.968;4.168;2023-01-13T06:55:20;8.40;99.90
19437;DHT22;9854;50.968;4.168;2023-01-13T06:57:51;8.40;99.90
19437;DHT22;9854;50.968;4.168;2023-01-13T07:00:18;8.40;99.90
19437;DHT22;9854;50.968;4.168;2023-01-13T07:02:44;8.40;99.90
19437;DHT22;9854;50.968;4.168;2023-01-13T07:05:10;8.40;99.90
19437;DHT22;9854;50.968;4.168;2023-01-13T07:07:36;8.40;99.90
19437;DHT22;9854;50.968;4.168;2023-01-13T07:10:01;8.40;99.90
19437;DHT22;9854;50.968;4.168;2023-01-13T07:12:28;8.40;99.90
19437;DHT22;9854;50.968;4.168;2023-01-13T07:14:53;8.50;99.90
19437;DHT22;9854;50.968;4.168;2023-01-13T07:17:37;8.50;99.90
19437;DHT22;9854;50.968;4.168;2023-01-13T07:20:04;8.50;99.90
19437;DHT22;9854;50.968;4.168;2023-01-13T07:22:30;8.60;99.90
19437;DHT22;9854;50.968;4.168;2023-01-13T07:24:55;8.60;99.90
19437;DHT22;9854;50.968;4.168;2023-01-13T07:27:22;8.60;99.90
19437;DHT22;9854;50.968;4.168;2023-01-13T07:29:48;8.60;99.90
19437;DHT22;9854;50.968;4.168;2023-01-13T07:32:13;8.60;99.90
19437;DHT22;9854;50.968;4.168;2023-01-13T07:34:40;8.60;99.90
19437;DHT22;9854;50.968;4.168;2023-01-13T07:37:05;8.60;99.90
19437;DHT22;9854;50.968;4.168;2023-01-13T07:39:31;8.60;99.90
19437;DHT22;9854;50.968;4.168;2023-01-13T07:41:57;8.70;99.90
19437;DHT22;9854;50.968;4.168;2023-01-13T07:44:41;8.60;99.90
19437;DHT22;9854;50.968;4.168;2023-01-13T07:47:07;8.60;99.90
19437;DHT22;9854;50.968;4.168;2023-01-13T07:49:35;8.70;99.90
19437;DHT22;9854;50.968;4.168;2023-01-13T07:52:01;8.60;99.90
19437;DHT22;9854;50.968;4.168;2023-01-13T07:54:27;8.70;99.90
19437;DHT22;9854;50.968;4.168;2023-01-13T07:56:55;8.60;99.90
19437;DHT22;9854;50.968;4.168;2023-01-13T07:59:21;8.60;99.90
19437;DHT22;9854;50.968;4.168;2023-01-13T08:01:46;8.60;99.90
19437;DHT22;9854;50.968;4.168;2023-01-13T08:04:12;8.50;99.90
19437;DHT22;9854;50.968;4.168;2023-01-13T08:06:41;8.50;99.90
19437;DHT22;9854;50.968;4.168;2023-01-13T08:09:07;8.50;99.90
19437;DHT22;9854;50.968;4.168;2023-01-13T08:11:33;8.60;99.90
19437;DHT22;9854;50.968;4.168;2023-01-13T08:13:58;8.60;99.90
19437;DHT22;9854;50.968;4.168;2023-01-13T08:16:24;8.70;99.90
19437;DHT22;9854;50.968;4.168;2023-01-13T08:18:50;8.70;99.90
19437;DHT22;9854;50.968;4.168;2023-01-13T08:21:15;8.70;99.90
19437;DHT22;9854;50.968;4.168;2023-01-13T08:23:42;8.60;99.90
19437;DHT22;9854;50.968;4.168;2023-01-13T08:26:11;8.70;99.90
19437;DHT22;9854;50.968;4.168;2023-01-13T08:28:37;8.80;99.90
19437;DHT22;9854;50.968;4.168;2023-01-13T08:31:08;8.80;99.90
19437;DHT22;9854;50.968;4.168;2023-01-13T08:33:34;8.80;99.90
19437;DHT22;9854;50.968;4.168;2023-01-13T08:36:08;8.80;99.90
19437;DHT22;9854;50.968;4.168;2023-01-13T08:38:35;8.80;99.90
19437;DHT22;9854;50.968;4.168;2023-01-13T08:41:10;8.80;99.90
19437;DHT22;9854;50.968;4.168;2023-01-13T08:43:36;8.80;99.90
19437;DHT22;9854;50.968;4.168;2023-01-13T08:46:02;8.70;99.90
19437;DHT22;9854;50.968;4.168;2023-01-13T08:48:29;8.70;99.90
19437;DHT22;9854;50.968;4.168;2023-01-13T08:51:01;8.80;99.90
19437;DHT22;9854;50.968;4.168;2023-01-13T08:53:27;8.80;99.90
19437;DHT22;9854;50.968;4.168;2023-01-13T08:55:52;8.90;99.90
19437;DHT22;9854;50.968;4.168;2023-01-13T08:58:18;8.90;99.90
19437;DHT22;9854;50.968;4.168;2023-01-13T09:00:44;9.00;99.90
19437;DHT22;9854;50.968;4.168;2023-01-13T09:03:09;9.00;99.90
19437;DHT22;9854;50.968;4.168;2023-01-13T09:05:35;9.00;99.90
19437;DHT22;9854;50.968;4.168;2023-01-13T09:08:01;9.00;99.90
19437;DHT22;9854;50.968;4.168;2023-01-13T09:10:27;9.00;99.90
19437;DHT22;9854;50.968;4.168;2023-01-13T09:12:52;9.10;99.90
19437;DHT22;9854;50.968;4.168;2023-01-13T09:15:37;9.10;99.90
19437;DHT22;9854;50.968;4.168;2023-01-13T09:18:05;9.10;99.90
19437;DHT22;9854;50.968;4.168;2023-01-13T09:20:31;9.10;99.90
19437;DHT22;9854;50.968;4.168;2023-01-13T09:22:56;9.20;99.90
19437;DHT22;9854;50.968;4.168;2023-01-13T09:25:22;9.30;99.90
19437;DHT22;9854;50.968;4.168;2023-01-13T09:27:48;9.30;99.90
19437;DHT22;9854;50.968;4.168;2023-01-13T09:30:13;9.40;99.90
19437;DHT22;9854;50.968;4.168;2023-01-13T09:32:39;9.40;99.90
19437;DHT22;9854;50.968;4.168;2023-01-13T09:35:06;9.40;99.90
19437;DHT22;9854;50.968;4.168;2023-01-13T09:37:39;9.50;99.90
19437;DHT22;9854;50.968;4.168;2023-01-13T09:40:10;9.60;99.90
19437;DHT22;9854;50.968;4.168;2023-01-13T09:42:56;9.60;99.90
19437;DHT22;9854;50.968;4.168;2023-01-13T09:46:01;9.60;99.90
19437;DHT22;9854;50.968;4.168;2023-01-13T09:48:37;9.60;99.90
19437;DHT22;9854;50.968;4.168;2023-01-13T09:51:20;9.60;99.90
19437;DHT22;9854;50.968;4.168;2023-01-13T09:54:13;9.70;99.90
19437;DHT22;9854;50.968;4.168;2023-01-13T09:56:41;9.70;99.90
19437;DHT22;9854;50.968;4.168;2023-01-13T09:59:10;9.80;99.90
19437;DHT22;9854;50.968;4.168;2023-01-13T10:04:10;9.90;99.90
19437;DHT22;9854;50.968;4.168;2023-01-13T10:06:37;10.00;99.90
19437;DHT22;9854;50.968;4.168;2023-01-13T10:09:04;10.00;99.90
19437;DHT22;9854;50.968;4.168;2023-01-13T10:11:35;10.00;99.90
19437;DHT22;9854;50.968;4.168;2023-01-13T10:14:48;10.10;99.90
19437;DHT22;9854;50.968;4.168;2023-01-13T10:17:29;10.10;99.90
19437;DHT22;9854;50.968;4.168;2023-01-13T10:20:11;10.20;99.90
19437;DHT22;9854;50.968;4.168;2023-01-13T10:28:18;10.10;99.90
19437;DHT22;9854;50.968;4.168;2023-01-13T10:30:45;10.00;99.90
19437;DHT22;9854;50.968;4.168;2023-01-13T10:35:47;10.10;99.90
19437;DHT22;9854;50.968;4.168;2023-01-13T10:38:24;10.10;99.90
19437;DHT22;9854;50.968;4.168;2023-01-13T10:40:51;10.00;99.90
19437;DHT22;9854;50.968;4.168;2023-01-13T10:43:20;10.00;99.90
19437;DHT22;9854;50.968;4.168;2023-01-13T10:46:10;10.00;99.90
19437;DHT22;9854;50.968;4.168;2023-01-13T10:51:31;9.80;99.90
19437;DHT22;9854;50.968;4.168;2023-01-13T10:56:39;10.00;99.90
19437;DHT22;9854;50.968;4.168;2023-01-13T10:59:14;10.20;99.90
19437;DHT22;9854;50.968;4.168;2023-01-13T11:06:54;10.30;99.90
19437;DHT22;9854;50.968;4.168;2023-01-13T11:09:20;10.20;99.90
19437;DHT22;9854;50.968;4.168;2023-01-13T11:11:47;10.30;99.90
19437;DHT22;9854;50.968;4.168;2023-01-13T11:14:42;10.30;99.90
19437;DHT22;9854;50.968;4.168;2023-01-13T11:22:33;10.30;99.90
19437;DHT22;9854;50.968;4.168;2023-01-13T11:25:04;10.20;99.90
19437;DHT22;9854;50.968;4.168;2023-01-13T11:28:03;10.10;99.90
19437;DHT22;9854;50.968;4.168;2023-01-13T11:30:42;9.80;99.90
19437;DHT22;9854;50.968;4.168;2023-01-13T11:38:32;9.40;99.90
19437;DHT22;9854;50.968;4.168;2023-01-13T11:41:08;9.50;99.90
19437;DHT22;9854;50.968;4.168;2023-01-13T11:43:51;9.50;99.90
19437;DHT22;9854;50.968;4.168;2023-01-13T11:46:21;9.60;99.90
19437;DHT22;9854;50.968;4.168;2023-01-13T11:48:47;9.60;99.90
19437;DHT22;9854;50.968;4.168;2023-01-13T12:02:36;9.90;99.90
19437;DHT22;9854;50.968;4.168;2023-01-13T12:05:22;9.90;99.90
19437;DHT22;9854;50.968;4.168;2023-01-13T12:08:00;9.90;99.90
19437;DHT22;9854;50.968;4.168;2023-01-13T12:10:34;9.90;99.90
19437;DHT22;9854;50.968;4.168;2023-01-13T12:16:03;10.20;99.90
19437;DHT22;9854;50.968;4.168;2023-01-13T12:21:20;10.20;99.90
19437;DHT22;9854;50.968;4.168;2023-01-13T12:24:00;10.40;99.90
19437;DHT22;9854;50.968;4.168;2023-01-13T12:26:35;10.20;99.90
19437;DHT22;9854;50.968;4.168;2023-01-13T12:29:14;10.10;99.90
19437;DHT22;9854;50.968;4.168;2023-01-13T12:31:40;10.10;99.90
19437;DHT22;9854;50.968;4.168;2023-01-13T12:34:21;10.10;99.90
19437;DHT22;9854;50.968;4.168;2023-01-13T12:39:29;10.20;99.90
19437;DHT22;9854;50.968;4.168;2023-01-13T12:42:16;10.20;99.90
19437;DHT22;9854;50.968;4.168;2023-01-13T12:47:43;10.20;99.90
19437;DHT22;9854;50.968;4.168;2023-01-13T12:52:50;9.80;99.90
19437;DHT22;9854;50.968;4.168;2023-01-13T12:55:21;9.70;99.90
19437;DHT22;9854;50.968;4.168;2023-01-13T13:00:36;9.60;99.90
19437;DHT22;9854;50.968;4.168;2023-01-13T13:05:44;9.90;99.90
19437;DHT22;9854;50.968;4.168;2023-01-13T13:08:22;10.00;99.90
19437;DHT22;9854;50.968;4.168;2023-01-13T13:14:03;10.10;99.90
19437;DHT22;9854;50.968;4.168;2023-01-13T13:30:07;10.60;99.90
19437;DHT22;9854;50.968;4.168;2023-01-13T13:40:44;10.60;99.90
19437;DHT22;9854;50.968;4.168;2023-01-13T13:43:46;10.60;99.90
19437;DHT22;9854;50.968;4.168;2023-01-13T13:46:33;10.50;99.90
19437;DHT22;9854;50.968;4.168;2023-01-13T13:49:16;10.50;99.90
19437;DHT22;9854;50.968;4.168;2023-01-13T13:51:53;10.50;99.90
19437;DHT22;9854;50.968;4.168;2023-01-13T13:54:22;10.50;99.90
19437;DHT22;9854;50.968;4.168;2023-01-13T13:56:48;10.50;99.90
19437;DHT22;9854;50.968;4.168;2023-01-13T13:59:23;10.50;99.90
19437;DHT22;9854;50.968;4.168;2023-01-13T14:01:55;10.50;99.90
19437;DHT22;9854;50.968;4.168;2023-01-13T14:04:32;10.50;99.90
19437;DHT22;9854;50.968;4.168;2023-01-13T14:07:16;10.50;99.90
19437;DHT22;9854;50.968;4.168;2023-01-13T14:09:48;10.60;99.90
19437;DHT22;9854;50.968;4.168;2023-01-13T14:12:20;10.50;99.90
19437;DHT22;9854;50.968;4.168;2023-01-13T14:14:47;10.50;99.90
19437;DHT22;9854;50.968;4.168;2023-01-13T14:17:25;10.50;99.90
19437;DHT22;9854;50.968;4.168;2023-01-13T14:19:54;10.60;99.90
19437;DHT22;9854;50.968;4.168;2023-01-13T14:22:21;10.60;99.90
19437;DHT22;9854;50.968;4.168;2023-01-13T14:24:47;10.60;99.90
19437;DHT22;9854;50.968;4.168;2023-01-13T14:27:19;10.70;99.90
19437;DHT22;9854;50.968;4.168;2023-01-13T14:29:45;10.70;99.90
19437;DHT22;9854;50.968;4.168;2023-01-13T14:32:17;10.70;99.90
19437;DHT22;9854;50.968;4.168;2023-01-13T14:34:44;10.60;99.90
19437;DHT22;9854;50.968;4.168;2023-01-13T14:39:55;10.50;99.90
19437;DHT22;9854;50.968;4.168;2023-01-13T14:42:21;10.60;99.90
19437;DHT22;9854;50.968;4.168;2023-01-13T14:44:50;10.60;99.90
19437;DHT22;9854;50.968;4.168;2023-01-13T14:50:32;10.50;99.90
19437;DHT22;9854;50.968;4.168;2023-01-13T14:52:49;10.40;99.90
19437;DHT22;9854;50.968;4.168;2023-01-13T14:57:49;10.60;99.90
19437;DHT22;9854;50.968;4.168;2023-01-13T15:08:00;10.40;99.90
19437;DHT22;9854;50.968;4.168;2023-01-13T15:10:34;10.40;99.90
19437;DHT22;9854;50.968;4.168;2023-01-13T15:13:04;10.30;99.90
19437;DHT22;9854;50.968;4.168;2023-01-13T15:15:35;10.40;99.90
19437;DHT22;9854;50.968;4.168;2023-01-13T15:18:10;10.50;99.90
19437;DHT22;9854;50.968;4.168;2023-01-13T15:20:38;10.50;99.90
19437;DHT22;9854;50.968;4.168;2023-01-13T15:23:04;10.40;99.90
19437;DHT22;9854;50.968;4.168;2023-01-13T15:25:38;10.50;99.90
19437;DHT22;9854;50.968;4.168;2023-01-13T15:28:05;10.40;99.90
19437;DHT22;9854;50.968;4.168;2023-01-13T15:30:32;10.50;99.90
19437;DHT22;9854;50.968;4.168;2023-01-13T15:32:58;10.40;99.90
19437;DHT22;9854;50.968;4.168;2023-01-13T15:35:26;10.40;99.90
19437;DHT22;9854;50.968;4.168;2023-01-13T15:37:55;10.40;99.90
19437;DHT22;9854;50.968;4.168;2023-01-13T15:40:29;10.30;99.90
19437;DHT22;9854;50.968;4.168;2023-01-13T15:42:55;10.30;99.90
19437;DHT22;9854;50.968;4.168;2023-01-13T15:45:40;10.20;99.90
19437;DHT22;9854;50.968;4.168;2023-01-13T15:48:25;10.30;99.90
19437;DHT22;9854;50.968;4.168;2023-01-13T15:50:52;10.20;99.90
19437;DHT22;9854;50.968;4.168;2023-01-13T15:53:19;10.00;99.90
19437;DHT22;9854;50.968;4.168;2023-01-13T15:55:49;10.00;99.90
19437;DHT22;9854;50.968;4.168;2023-01-13T15:58:19;9.90;99.90
19437;DHT22;9854;50.968;4.168;2023-01-13T16:00:45;9.90;99.90
19437;DHT22;9854;50.968;4.168;2023-01-13T16:03:14;9.90;99.90
19437;DHT22;9854;50.968;4.168;2023-01-13T16:05:41;9.90;99.90
19437;DHT22;9854;50.968;4.168;2023-01-13T16:08:25;9.90;99.90
19437;DHT22;9854;50.968;4.168;2023-01-13T16:10:50;9.90;99.90
19437;DHT22;9854;50.968;4.168;2023-01-13T16:13:16;9.80;99.90
19437;DHT22;9854;50.968;4.168;2023-01-13T16:15:47;9.80;99.90
19437;DHT22;9854;50.968;4.168;2023-01-13T16:18:18;9.80;99.90
19437;DHT22;9854;50.968;4.168;2023-01-13T16:20:44;9.70;99.90
19437;DHT22;9854;50.968;4.168;2023-01-13T16:23:11;9.70;99.90
19437;DHT22;9854;50.968;4.168;2023-01-13T16:25:37;9.70;99.90
19437;DHT22;9854;50.968;4.168;2023-01-13T16:28:03;9.60;99.90
19437;DHT22;9854;50.968;4.168;2023-01-13T16:30:34;9.60;99.90
19437;DHT22;9854;50.968;4.168;2023-01-13T16:33:01;9.70;99.90
19437;DHT22;9854;50.968;4.168;2023-01-13T16:35:28;9.80;99.90
19437;DHT22;9854;50.968;4.168;2023-01-13T16:37:56;9.70;99.90
19437;DHT22;9854;50.968;4.168;2023-01-13T16:40:32;9.70;99.90
19437;DHT22;9854;50.968;4.168;2023-01-13T16:42:59;9.70;99.90
19437;DHT22;9854;50.968;4.168;2023-01-13T16:45:28;9.60;99.90
19437;DHT22;9854;50.968;4.168;2023-01-13T16:47:53;9.60;99.90
19437;DHT22;9854;50.968;4.168;2023-01-13T16:52:56;9.60;99.90
19437;DHT22;9854;50.968;4.168;2023-01-13T16:55:21;9.70;99.90
19437;DHT22;9854;50.968;4.168;2023-01-13T16:57:47;9.70;99.90
19437;DHT22;9854;50.968;4.168;2023-01-13T17:00:13;9.60;99.90
19437;DHT22;9854;50.968;4.168;2023-01-13T17:02:39;9.70;99.90
19437;DHT22;9854;50.968;4.168;2023-01-13T17:05:06;9.60;99.90
19437;DHT22;9854;50.968;4.168;2023-01-13T17:07:31;9.60;99.90
19437;DHT22;9854;50.968;4.168;2023-01-13T17:09:57;9.60;99.90
19437;DHT22;9854;50.968;4.168;2023-01-13T17:12:23;9.60;99.90
19437;DHT22;9854;50.968;4.168;2023-01-13T17:14:48;9.50;99.90
19437;DHT22;9854;50.968;4.168;2023-01-13T17:17:25;9.60;99.90
19437;DHT22;9854;50.968;4.168;2023-01-13T17:19:52;9.90;99.90
19437;DHT22;9854;50.968;4.168;2023-01-13T17:22:18;9.80;99.90
19437;DHT22;9854;50.968;4.168;2023-01-13T17:24:44;9.70;99.90
19437;DHT22;9854;50.968;4.168;2023-01-13T17:27:10;9.70;99.90
19437;DHT22;9854;50.968;4.168;2023-01-13T17:29:36;9.80;99.90
19437;DHT22;9854;50.968;4.168;2023-01-13T17:32:02;9.90;99.90
19437;DHT22;9854;50.968;4.168;2023-01-13T17:34:29;9.80;99.90
19437;DHT22;9854;50.968;4.168;2023-01-13T17:36:55;9.80;99.90
19437;DHT22;9854;50.968;4.168;2023-01-13T17:39:26;9.80;99.90
19437;DHT22;9854;50.968;4.168;2023-01-13T17:41:52;9.80;99.90
19437;DHT22;9854;50.968;4.168;2023-01-13T17:44:21;9.90;99.90
19437;DHT22;9854;50.968;4.168;2023-01-13T17:46:47;9.80;99.90
19437;DHT22;9854;50.968;4.168;2023-01-13T17:49:15;9.90;99.90
19437;DHT22;9854;50.968;4.168;2023-01-13T17:51:41;9.80;99.90
19437;DHT22;9854;50.968;4.168;2023-01-13T17:54:07;9.80;99.90
19437;DHT22;9854;50.968;4.168;2023-01-13T17:56:37;9.80;99.90
19437;DHT22;9854;50.968;4.168;2023-01-13T17:59:03;9.80;99.90
19437;DHT22;9854;50.968;4.168;2023-01-13T18:01:28;9.80;99.90
19437;DHT22;9854;50.968;4.168;2023-01-13T18:03:58;9.80;99.90
19437;DHT22;9854;50.968;4.168;2023-01-13T18:06:24;9.80;99.90
19437;DHT22;9854;50.968;4.168;2023-01-13T18:08:50;9.80;99.90
19437;DHT22;9854;50.968;4.168;2023-01-13T18:11:17;9.90;99.90
19437;DHT22;9854;50.968;4.168;2023-01-13T18:13:44;9.90;99.90
19437;DHT22;9854;50.968;4.168;2023-01-13T18:16:15;9.90;99.90
19437;DHT22;9854;50.968;4.168;2023-01-13T18:18:43;9.80;99.90
19437;DHT22;9854;50.968;4.168;2023-01-13T18:21:20;9.90;99.90
19437;DHT22;9854;50.968;4.168;2023-01-13T18:24:09;9.80;99.90
19437;DHT22;9854;50.968;4.168;2023-01-13T18:26:54;9.80;99.90
19437;DHT22;9854;50.968;4.168;2023-01-13T18:29:38;9.90;99.90
19437;DHT22;9854;50.968;4.168;2023-01-13T18:32:04;9.80;99.90
19437;DHT22;9854;50.968;4.168;2023-01-13T18:34:31;9.80;99.90
19437;DHT22;9854;50.968;4.168;2023-01-13T18:36:57;9.70;99.90
19437;DHT22;9854;50.968;4.168;2023-01-13T18:39:23;9.80;99.90
19437;DHT22;9854;50.968;4.168;2023-01-13T18:41:48;9.70;99.90
19437;DHT22;9854;50.968;4.168;2023-01-13T18:44:33;9.60;99.90